sensor_id;sensor_type;location;lat;lon;timestamp;temperature;humidity
48994;DHT22;34804;49.214;12.276;2023-02-28T00:00:12;-3274.30;82.00
48994;DHT22;34804;49.214;12.276;2023-02-28T00:02:41;-3274.30;81.80
48994;DHT22;34804;49.214;12.276;2023-02-28T00:05:09;-3274.30;81.90
48994;DHT22;34804;49.214;12.276;2023-02-28T00:07:36;-3274.30;81.80
48994;DHT22;34804;49.214;12.276;2023-02-28T00:10:05;-3274.30;81.80
48994;DHT22;34804;49.214;12.276;2023-02-28T00:12:36;-3274.30;81.80
48994;DHT22;34804;49.214;12.276;2023-02-28T00:15:08;-3274.30;81.60
48994;DHT22;34804;49.214;12.276;2023-02-28T00:17:36;-3274.30;81.50
48994;DHT22;34804;49.214;12.276;2023-02-28T00:20:04;-3274.30;81.50
48994;DHT22;34804;49.214;12.276;2023-02-28T00:22:35;-3274.30;81.50
48994;DHT22;34804;49.214;12.276;2023-02-28T00:25:02;-3274.40;81.40
48994;DHT22;34804;49.214;12.276;2023-02-28T00:27:30;-3274.40;81.40
48994;DHT22;34804;49.214;12.276;2023-02-28T00:29:57;-3274.30;81.50
48994;DHT22;34804;49.214;12.276;2023-02-28T00:32:24;-3274.30;81.40
48994;DHT22;34804;49.214;12.276;2023-02-28T00:34:50;-3274.20;81.60
48994;DHT22;34804;49.214;12.276;2023-02-28T00:37:17;-3274.20;81.70
48994;DHT22;34804;49.214;12.276;2023-02-28T00:39:44;-3274.20;81.70
48994;DHT22;34804;49.214;12.276;2023-02-28T00:42:11;-3274.20;81.60
48994;DHT22;34804;49.214;12.276;2023-02-28T00:44:38;-3274.20;81.90
48994;DHT22;34804;49.214;12.276;2023-02-28T00:47:05;-3274.20;81.70
48994;DHT22;34804;49.214;12.276;2023-02-28T00:49:31;-3274.20;81.70
48994;DHT22;34804;49.214;12.276;2023-02-28T00:51:58;-3274.20;81.70
48994;DHT22;34804;49.214;12.276;2023-02-28T00:54:25;-3274.10;82.10
48994;DHT22;34804;49.214;12.276;2023-02-28T00:56:52;-3274.10;82.40
48994;DHT22;34804;49.214;12.276;2023-02-28T00:59:19;-3274.10;82.20
48994;DHT22;34804;49.214;12.276;2023-02-28T01:01:46;-3274.10;82.00
48994;DHT22;34804;49.214;12.276;2023-02-28T01:04:13;-3274.10;82.30
48994;DHT22;34804;49.214;12.276;2023-02-28T01:06:40;-3274.10;82.20
48994;DHT22;34804;49.214;12.276;2023-02-28T01:09:07;-3274.10;82.20
48994;DHT22;34804;49.214;12.276;2023-02-28T01:11:35;-3274.00;82.30
48994;DHT22;34804;49.214;12.276;2023-02-28T01:14:02;-3274.00;82.40
48994;DHT22;34804;49.214;12.276;2023-02-28T01:16:30;-3273.90;82.50
48994;DHT22;34804;49.214;12.276;2023-02-28T01:18:57;-3273.90;82.60
48994;DHT22;34804;49.214;12.276;2023-02-28T01:21:24;-3273.80;82.60
48994;DHT22;34804;49.214;12.276;2023-02-28T01:23:51;-3273.80;82.70
48994;DHT22;34804;49.214;12.276;2023-02-28T01:26:22;-3273.70;82.80
48994;DHT22;34804;49.214;12.276;2023-02-28T01:28:50;-3273.70;83.10
48994;DHT22;34804;49.214;12.276;2023-02-28T01:31:18;-3273.60;83.10
48994;DHT22;34804;49.214;12.276;2023-02-28T01:33:45;-3273.50;83.30
48994;DHT22;34804;49.214;12.276;2023-02-28T01:36:17;-3273.40;83.70
48994;DHT22;34804;49.214;12.276;2023-02-28T01:38:45;-3273.40;83.80
48994;DHT22;34804;49.214;12.276;2023-02-28T01:41:20;-3273.30;84.00
48994;DHT22;34804;49.214;12.276;2023-02-28T01:46:14;-3273.30;84.20
48994;DHT22;34804;49.214;12.276;2023-02-28T01:49:04;-3273.30;84.20
48994;DHT22;34804;49.214;12.276;2023-02-28T01:51:41;-3273.30;84.20
48994;DHT22;34804;49.214;12.276;2023-02-28T01:54:16;-3273.20;84.10
48994;DHT22;34804;49.214;12.276;2023-02-28T01:56:47;-3273.20;84.50
48994;DHT22;34804;49.214;12.276;2023-02-28T01:59:26;-3273.20;84.50
48994;DHT22;34804;49.214;12.276;2023-02-28T02:01:54;-3273.10;84.80
48994;DHT22;34804;49.214;12.276;2023-02-28T02:04:23;-3273.10;84.80
48994;DHT22;34804;49.214;12.276;2023-02-28T02:06:52;-3273.10;85.00
48994;DHT22;34804;49.214;12.276;2023-02-28T02:09:18;-3273.10;85.00
48994;DHT22;34804;49.214;12.276;2023-02-28T02:11:46;-3273.10;85.00
48994;DHT22;34804;49.214;12.276;2023-02-28T02:14:26;-3273.00;85.10
48994;DHT22;34804;49.214;12.276;2023-02-28T02:28:34;-3272.70;85.70
48994;DHT22;34804;49.214;12.276;2023-02-28T02:40:08;-3272.60;86.00
48994;DHT22;34804;49.214;12.276;2023-02-28T02:42:56;-3272.50;85.70
48994;DHT22;34804;49.214;12.276;2023-02-28T02:45:32;-3272.60;86.30
48994;DHT22;34804;49.214;12.276;2023-02-28T02:48:06;-3272.50;86.30
48994;DHT22;34804;49.214;12.276;2023-02-28T02:50:48;-3272.50;86.20
48994;DHT22;34804;49.214;12.276;2023-02-28T02:53:18;-3272.60;86.50
48994;DHT22;34804;49.214;12.276;2023-02-28T02:55:49;-3272.50;86.20
48994;DHT22;34804;49.214;12.276;2023-02-28T02:58:25;-3272.50;86.50
48994;DHT22;34804;49.214;12.276;2023-02-28T03:00:56;-3272.50;86.50
48994;DHT22;34804;49.214;12.276;2023-02-28T03:03:25;-3272.40;86.50
48994;DHT22;34804;49.214;12.276;2023-02-28T03:05:57;-3272.40;86.60
48994;DHT22;34804;49.214;12.276;2023-02-28T03:08:25;-3272.30;86.40
48994;DHT22;34804;49.214;12.276;2023-02-28T03:10:57;-3272.30;86.70
48994;DHT22;34804;49.214;12.276;2023-02-28T03:13:40;-3272.30;86.80
48994;DHT22;34804;49.214;12.276;2023-02-28T03:16:23;-3272.30;87.10
48994;DHT22;34804;49.214;12.276;2023-02-28T03:22:05;-3272.20;87.10
48994;DHT22;34804;49.214;12.276;2023-02-28T03:25:00;-3272.20;87.00
48994;DHT22;34804;49.214;12.276;2023-02-28T03:27:36;-3272.20;87.20
48994;DHT22;34804;49.214;12.276;2023-02-28T03:35:59;-3272.20;87.40
48994;DHT22;34804;49.214;12.276;2023-02-28T03:41:23;-3272.20;87.70
48994;DHT22;34804;49.214;12.276;2023-02-28T03:44:05;-3272.20;88.00
48994;DHT22;34804;49.214;12.276;2023-02-28T03:46:37;-3272.30;87.80
48994;DHT22;34804;49.214;12.276;2023-02-28T03:49:20;-3272.20;87.50
48994;DHT22;34804;49.214;12.276;2023-02-28T03:51:50;-3272.10;87.20
48994;DHT22;34804;49.214;12.276;2023-02-28T03:54:27;-3272.00;87.70
48994;DHT22;34804;49.214;12.276;2023-02-28T03:57:08;-3272.00;88.00
48994;DHT22;34804;49.214;12.276;2023-02-28T03:59:43;-3272.00;88.20
48994;DHT22;34804;49.214;12.276;2023-02-28T04:02:11;-3272.00;88.10
48994;DHT22;34804;49.214;12.276;2023-02-28T04:04:38;-3272.00;88.20
48994;DHT22;34804;49.214;12.276;2023-02-28T04:07:08;-3272.00;88.20
48994;DHT22;34804;49.214;12.276;2023-02-28T04:09:35;-3271.90;88.20
48994;DHT22;34804;49.214;12.276;2023-02-28T04:12:02;-3272.00;88.50
48994;DHT22;34804;49.214;12.276;2023-02-28T04:14:28;-3272.00;88.70
48994;DHT22;34804;49.214;12.276;2023-02-28T04:16:55;-3272.00;88.70
48994;DHT22;34804;49.214;12.276;2023-02-28T04:19:22;-3271.90;88.60
48994;DHT22;34804;49.214;12.276;2023-02-28T04:21:50;-3271.90;88.60
48994;DHT22;34804;49.214;12.276;2023-02-28T04:24:23;-3271.90;88.60
48994;DHT22;34804;49.214;12.276;2023-02-28T04:26:53;-3271.90;88.60
48994;DHT22;34804;49.214;12.276;2023-02-28T04:29:23;-3271.80;88.30
48994;DHT22;34804;49.214;12.276;2023-02-28T04:31:50;-3271.80;88.30
48994;DHT22;34804;49.214;12.276;2023-02-28T04:34:20;-3271.80;88.30
48994;DHT22;34804;49.214;12.276;2023-02-28T04:36:48;-3271.80;88.40
48994;DHT22;34804;49.214;12.276;2023-02-28T04:39:37;-3271.70;88.40
48994;DHT22;34804;49.214;12.276;2023-02-28T04:42:04;-3271.80;88.80
48994;DHT22;34804;49.214;12.276;2023-02-28T04:44:31;-3271.80;88.90
48994;DHT22;34804;49.214;12.276;2023-02-28T04:46:58;-3271.80;88.80
48994;DHT22;34804;49.214;12.276;2023-02-28T04:49:25;-3271.90;89.20
48994;DHT22;34804;49.214;12.276;2023-02-28T04:51:52;-3271.90;89.00
48994;DHT22;34804;49.214;12.276;2023-02-28T04:54:19;-3271.90;89.00
48994;DHT22;34804;49.214;12.276;2023-02-28T04:56:46;-3271.90;88.80
48994;DHT22;34804;49.214;12.276;2023-02-28T04:59:16;-3272.00;88.80
48994;DHT22;34804;49.214;12.276;2023-02-28T05:01:47;-3271.90;88.60
48994;DHT22;34804;49.214;12.276;2023-02-28T05:04:14;-3271.90;88.70
48994;DHT22;34804;49.214;12.276;2023-02-28T05:06:42;-3272.00;88.80
48994;DHT22;34804;49.214;12.276;2023-02-28T05:09:08;-3271.90;88.70
48994;DHT22;34804;49.214;12.276;2023-02-28T05:11:38;-3271.90;88.60
48994;DHT22;34804;49.214;12.276;2023-02-28T05:14:11;-3271.90;88.60
48994;DHT22;34804;49.214;12.276;2023-02-28T05:16:38;-3271.80;88.10
48994;DHT22;34804;49.214;12.276;2023-02-28T05:19:05;-3271.80;88.30
48994;DHT22;34804;49.214;12.276;2023-02-28T05:21:35;-3271.80;88.50
48994;DHT22;34804;49.214;12.276;2023-02-28T05:24:05;-3272.00;88.40
48994;DHT22;34804;49.214;12.276;2023-02-28T05:26:35;-3272.10;88.00
48994;DHT22;34804;49.214;12.276;2023-02-28T05:29:02;-3272.10;87.80
48994;DHT22;34804;49.214;12.276;2023-02-28T05:31:29;-3272.10;87.30
48994;DHT22;34804;49.214;12.276;2023-02-28T05:33:56;-3272.10;86.80
48994;DHT22;34804;49.214;12.276;2023-02-28T05:36:24;-3272.20;86.90
48994;DHT22;34804;49.214;12.276;2023-02-28T05:38:50;-3272.20;86.70
48994;DHT22;34804;49.214;12.276;2023-02-28T05:41:18;-3272.30;86.00
48994;DHT22;34804;49.214;12.276;2023-02-28T05:43:46;-3272.30;85.80
48994;DHT22;34804;49.214;12.276;2023-02-28T05:46:14;-3272.40;85.40
48994;DHT22;34804;49.214;12.276;2023-02-28T05:48:41;-3272.70;84.10
48994;DHT22;34804;49.214;12.276;2023-02-28T05:51:09;-3272.90;83.00
48994;DHT22;34804;49.214;12.276;2023-02-28T05:53:35;-3273.00;82.40
48994;DHT22;34804;49.214;12.276;2023-02-28T05:56:03;-3273.00;81.80
48994;DHT22;34804;49.214;12.276;2023-02-28T05:58:30;-3273.20;80.90
48994;DHT22;34804;49.214;12.276;2023-02-28T06:00:58;-3273.30;80.20
48994;DHT22;34804;49.214;12.276;2023-02-28T06:03:26;-3273.40;79.30
48994;DHT22;34804;49.214;12.276;2023-02-28T06:05:53;-3273.60;78.80
48994;DHT22;34804;49.214;12.276;2023-02-28T06:08:20;-3273.70;78.50
48994;DHT22;34804;49.214;12.276;2023-02-28T06:10:47;-3273.80;77.60
48994;DHT22;34804;49.214;12.276;2023-02-28T06:13:14;-3274.00;77.30
48994;DHT22;34804;49.214;12.276;2023-02-28T06:15:41;-3274.10;76.20
48994;DHT22;34804;49.214;12.276;2023-02-28T06:18:08;-3274.10;76.50
48994;DHT22;34804;49.214;12.276;2023-02-28T06:20:35;-3274.20;76.10
48994;DHT22;34804;49.214;12.276;2023-02-28T06:23:03;-3274.20;76.40
48994;DHT22;34804;49.214;12.276;2023-02-28T06:25:30;-3274.20;75.90
48994;DHT22;34804;49.214;12.276;2023-02-28T06:27:57;-3274.30;76.00
48994;DHT22;34804;49.214;12.276;2023-02-28T06:30:23;-3274.30;76.30
48994;DHT22;34804;49.214;12.276;2023-02-28T06:32:53;-3274.30;76.50
48994;DHT22;34804;49.214;12.276;2023-02-28T06:35:21;-3274.30;76.40
48994;DHT22;34804;49.214;12.276;2023-02-28T06:37:48;-3274.40;76.40
48994;DHT22;34804;49.214;12.276;2023-02-28T06:40:15;-3274.50;76.20
48994;DHT22;34804;49.214;12.276;2023-02-28T06:42:42;-3274.50;76.10
48994;DHT22;34804;49.214;12.276;2023-02-28T06:45:10;-3274.60;75.60
48994;DHT22;34804;49.214;12.276;2023-02-28T06:47:39;-3274.70;76.10
48994;DHT22;34804;49.214;12.276;2023-02-28T06:50:09;-3274.70;76.30
48994;DHT22;34804;49.214;12.276;2023-02-28T06:52:36;-3274.80;76.20
48994;DHT22;34804;49.214;12.276;2023-02-28T06:55:05;-3274.90;75.60
48994;DHT22;34804;49.214;12.276;2023-02-28T06:57:33;-3275.00;75.50
48994;DHT22;34804;49.214;12.276;2023-02-28T07:00:07;-3275.00;75.80
48994;DHT22;34804;49.214;12.276;2023-02-28T07:02:35;-3275.10;76.00
48994;DHT22;34804;49.214;12.276;2023-02-28T07:05:05;-3275.20;75.40
48994;DHT22;34804;49.214;12.276;2023-02-28T07:07:32;-3275.20;76.10
48994;DHT22;34804;49.214;12.276;2023-02-28T07:09:59;-3275.30;75.50
48994;DHT22;34804;49.214;12.276;2023-02-28T07:12:26;-3275.40;75.50
48994;DHT22;34804;49.214;12.276;2023-02-28T07:14:53;-3275.50;75.40
48994;DHT22;34804;49.214;12.276;2023-02-28T07:17:22;-3275.50;75.20
48994;DHT22;34804;49.214;12.276;2023-02-28T07:19:49;-3275.60;75.20
48994;DHT22;34804;49.214;12.276;2023-02-28T07:22:15;-3275.60;74.70
48994;DHT22;34804;49.214;12.276;2023-02-28T07:24:42;-3275.70;74.80
48994;DHT22;34804;49.214;12.276;2023-02-28T07:27:09;-3275.80;74.30
48994;DHT22;34804;49.214;12.276;2023-02-28T07:29:36;-3275.90;73.80
48994;DHT22;34804;49.214;12.276;2023-02-28T07:32:04;-3276.00;73.50
48994;DHT22;34804;49.214;12.276;2023-02-28T07:34:30;-3276.00;73.60
48994;DHT22;34804;49.214;12.276;2023-02-28T07:36:57;-3276.10;73.30
48994;DHT22;34804;49.214;12.276;2023-02-28T07:39:24;-3276.20;72.70
48994;DHT22;34804;49.214;12.276;2023-02-28T07:41:51;-3276.30;73.00
48994;DHT22;34804;49.214;12.276;2023-02-28T07:44:18;-3276.30;72.50
48994;DHT22;34804;49.214;12.276;2023-02-28T07:46:44;-3276.40;72.00
48994;DHT22;34804;49.214;12.276;2023-02-28T07:49:11;-3276.40;72.30
48994;DHT22;34804;49.214;12.276;2023-02-28T07:51:38;-3276.60;71.80
48994;DHT22;34804;49.214;12.276;2023-02-28T07:54:05;-3276.70;70.90
48994;DHT22;34804;49.214;12.276;2023-02-28T07:56:31;-3276.70;70.30
48994;DHT22;34804;49.214;12.276;2023-02-28T07:58:58;-3276.70;69.70
48994;DHT22;34804;49.214;12.276;2023-02-28T08:01:25;-3276.70;69.40
48994;DHT22;34804;49.214;12.276;2023-02-28T08:03:52;0.00;69.60
48994;DHT22;34804;49.214;12.276;2023-02-28T08:06:23;0.00;68.70
48994;DHT22;34804;49.214;12.276;2023-02-28T08:08:50;0.00;68.80
48994;DHT22;34804;49.214;12.276;2023-02-28T08:11:18;0.00;68.20
48994;DHT22;34804;49.214;12.276;2023-02-28T08:13:45;0.00;68.00
48994;DHT22;34804;49.214;12.276;2023-02-28T08:16:14;0.00;68.70
48994;DHT22;34804;49.214;12.276;2023-02-28T08:18:44;0.00;68.20
48994;DHT22;34804;49.214;12.276;2023-02-28T08:21:11;0.00;68.90
48994;DHT22;34804;49.214;12.276;2023-02-28T08:23:37;0.10;68.70
48994;DHT22;34804;49.214;12.276;2023-02-28T08:26:05;0.10;69.00
48994;DHT22;34804;49.214;12.276;2023-02-28T08:28:32;0.20;69.20
48994;DHT22;34804;49.214;12.276;2023-02-28T08:30:59;0.20;68.30
48994;DHT22;34804;49.214;12.276;2023-02-28T08:33:27;0.20;68.50
48994;DHT22;34804;49.214;12.276;2023-02-28T08:35:55;0.40;68.00
48994;DHT22;34804;49.214;12.276;2023-02-28T08:38:22;0.40;67.40
48994;DHT22;34804;49.214;12.276;2023-02-28T08:40:49;0.50;67.70
48994;DHT22;34804;49.214;12.276;2023-02-28T08:43:16;0.60;67.20
48994;DHT22;34804;49.214;12.276;2023-02-28T08:45:43;0.80;66.80
48994;DHT22;34804;49.214;12.276;2023-02-28T08:48:10;0.80;66.10
48994;DHT22;34804;49.214;12.276;2023-02-28T08:50:37;0.80;66.60
48994;DHT22;34804;49.214;12.276;2023-02-28T08:53:03;0.90;65.90
48994;DHT22;34804;49.214;12.276;2023-02-28T08:55:30;0.90;65.40
48994;DHT22;34804;49.214;12.276;2023-02-28T08:57:57;1.00;65.70
48994;DHT22;34804;49.214;12.276;2023-02-28T09:00:24;1.10;65.50
48994;DHT22;34804;49.214;12.276;2023-02-28T09:02:51;1.20;65.90
48994;DHT22;34804;49.214;12.276;2023-02-28T09:05:18;1.30;65.30
48994;DHT22;34804;49.214;12.276;2023-02-28T09:07:45;1.30;65.20
48994;DHT22;34804;49.214;12.276;2023-02-28T09:10:12;1.40;65.50
48994;DHT22;34804;49.214;12.276;2023-02-28T09:12:39;1.50;65.20
48994;DHT22;34804;49.214;12.276;2023-02-28T09:15:06;1.70;65.00
48994;DHT22;34804;49.214;12.276;2023-02-28T09:17:33;1.80;65.20
48994;DHT22;34804;49.214;12.276;2023-02-28T09:20:00;1.80;63.90
48994;DHT22;34804;49.214;12.276;2023-02-28T09:22:27;1.90;63.10
48994;DHT22;34804;49.214;12.276;2023-02-28T09:24:53;1.90;63.60
48994;DHT22;34804;49.214;12.276;2023-02-28T09:27:20;1.90;63.00
48994;DHT22;34804;49.214;12.276;2023-02-28T09:29:47;1.90;63.40
48994;DHT22;34804;49.214;12.276;2023-02-28T09:32:14;1.70;64.30
48994;DHT22;34804;49.214;12.276;2023-02-28T09:34:41;1.70;63.20
48994;DHT22;34804;49.214;12.276;2023-02-28T09:37:08;1.80;63.80
48994;DHT22;34804;49.214;12.276;2023-02-28T09:39:34;1.90;63.50
48994;DHT22;34804;49.214;12.276;2023-02-28T09:42:02;2.00;62.60
48994;DHT22;34804;49.214;12.276;2023-02-28T09:44:43;2.20;62.90
48994;DHT22;34804;49.214;12.276;2023-02-28T09:49:44;2.40;62.30
48994;DHT22;34804;49.214;12.276;2023-02-28T09:52:21;2.50;62.30
48994;DHT22;34804;49.214;12.276;2023-02-28T09:54:49;2.70;62.20
48994;DHT22;34804;49.214;12.276;2023-02-28T10:05:28;2.90;60.80
48994;DHT22;34804;49.214;12.276;2023-02-28T10:08:00;3.10;61.10
48994;DHT22;34804;49.214;12.276;2023-02-28T10:10:37;3.30;61.10
48994;DHT22;34804;49.214;12.276;2023-02-28T10:13:14;3.20;59.70
48994;DHT22;34804;49.214;12.276;2023-02-28T10:15:44;3.30;60.10
48994;DHT22;34804;49.214;12.276;2023-02-28T10:18:15;3.40;60.60
48994;DHT22;34804;49.214;12.276;2023-02-28T10:20:43;3.60;61.20
48994;DHT22;34804;49.214;12.276;2023-02-28T10:23:37;3.40;59.10
48994;DHT22;34804;49.214;12.276;2023-02-28T10:26:14;3.50;60.10
48994;DHT22;34804;49.214;12.276;2023-02-28T10:28:45;3.60;59.30
48994;DHT22;34804;49.214;12.276;2023-02-28T10:31:18;3.50;58.20
48994;DHT22;34804;49.214;12.276;2023-02-28T10:33:46;3.40;58.80
48994;DHT22;34804;49.214;12.276;2023-02-28T10:36:17;3.50;60.00
48994;DHT22;34804;49.214;12.276;2023-02-28T10:38:46;3.70;59.60
48994;DHT22;34804;49.214;12.276;2023-02-28T10:41:15;3.90;60.30
48994;DHT22;34804;49.214;12.276;2023-02-28T10:43:45;3.90;58.50
48994;DHT22;34804;49.214;12.276;2023-02-28T10:46:21;4.00;58.70
48994;DHT22;34804;49.214;12.276;2023-02-28T10:49:02;4.00;58.70
48994;DHT22;34804;49.214;12.276;2023-02-28T10:51:38;4.20;58.70
48994;DHT22;34804;49.214;12.276;2023-02-28T10:54:15;4.10;56.40
48994;DHT22;34804;49.214;12.276;2023-02-28T10:56:42;4.10;56.00
48994;DHT22;34804;49.214;12.276;2023-02-28T10:59:30;4.00;57.00
48994;DHT22;34804;49.214;12.276;2023-02-28T11:01:57;3.90;57.00
48994;DHT22;34804;49.214;12.276;2023-02-28T11:07:04;4.20;56.50
48994;DHT22;34804;49.214;12.276;2023-02-28T11:09:34;4.10;56.80
48994;DHT22;34804;49.214;12.276;2023-02-28T11:12:07;4.10;58.40
48994;DHT22;34804;49.214;12.276;2023-02-28T11:14:48;4.20;56.10
48994;DHT22;34804;49.214;12.276;2023-02-28T11:17:21;4.20;57.10
48994;DHT22;34804;49.214;12.276;2023-02-28T11:19:52;4.40;57.00
48994;DHT22;34804;49.214;12.276;2023-02-28T11:22:23;4.30;56.00
48994;DHT22;34804;49.214;12.276;2023-02-28T11:24:53;4.40;55.30
48994;DHT22;34804;49.214;12.276;2023-02-28T11:29:59;4.50;55.90
48994;DHT22;34804;49.214;12.276;2023-02-28T11:32:27;4.70;56.80
48994;DHT22;34804;49.214;12.276;2023-02-28T11:37:36;5.00;55.00
48994;DHT22;34804;49.214;12.276;2023-02-28T11:40:14;4.60;55.60
48994;DHT22;34804;49.214;12.276;2023-02-28T11:45:50;4.60;56.90
48994;DHT22;34804;49.214;12.276;2023-02-28T11:48:45;5.00;55.50
48994;DHT22;34804;49.214;12.276;2023-02-28T11:51:44;5.20;54.40
48994;DHT22;34804;49.214;12.276;2023-02-28T11:57:56;5.40;53.50
48994;DHT22;34804;49.214;12.276;2023-02-28T12:00:34;4.90;53.20
48994;DHT22;34804;49.214;12.276;2023-02-28T12:13:48;5.80;51.90
48994;DHT22;34804;49.214;12.276;2023-02-28T12:16:42;5.80;50.30
48994;DHT22;34804;49.214;12.276;2023-02-28T12:19:13;6.10;51.90
48994;DHT22;34804;49.214;12.276;2023-02-28T12:22:06;6.50;51.20
48994;DHT22;34804;49.214;12.276;2023-02-28T12:27:16;6.00;52.20
48994;DHT22;34804;49.214;12.276;2023-02-28T12:29:49;5.60;51.80
48994;DHT22;34804;49.214;12.276;2023-02-28T12:34:50;6.20;50.50
48994;DHT22;34804;49.214;12.276;2023-02-28T12:37:33;6.70;51.20
48994;DHT22;34804;49.214;12.276;2023-02-28T12:40:15;7.30;47.80
48994;DHT22;34804;49.214;12.276;2023-02-28T12:42:46;8.00;46.80
48994;DHT22;34804;49.214;12.276;2023-02-28T12:47:57;9.50;42.70
48994;DHT22;34804;49.214;12.276;2023-02-28T12:50:27;9.50;42.10
48994;DHT22;34804;49.214;12.276;2023-02-28T12:53:08;9.80;42.40
48994;DHT22;34804;49.214;12.276;2023-02-28T12:56:16;10.30;41.20
48994;DHT22;34804;49.214;12.276;2023-02-28T12:58:53;10.70;39.60
48994;DHT22;34804;49.214;12.276;2023-02-28T13:09:57;10.90;38.30
48994;DHT22;34804;49.214;12.276;2023-02-28T13:12:25;11.50;38.10
48994;DHT22;34804;49.214;12.276;2023-02-28T13:15:16;12.10;37.40
48994;DHT22;34804;49.214;12.276;2023-02-28T13:17:48;12.60;37.10
48994;DHT22;34804;49.214;12.276;2023-02-28T13:20:21;12.50;36.20
48994;DHT22;34804;49.214;12.276;2023-02-28T13:22:52;11.60;38.30
48994;DHT22;34804;49.214;12.276;2023-02-28T13:27:50;10.50;39.60
48994;DHT22;34804;49.214;12.276;2023-02-28T13:38:54;12.00;37.90
48994;DHT22;34804;49.214;12.276;2023-02-28T14:05:42;10.10;39.60
48994;DHT22;34804;49.214;12.276;2023-02-28T14:08:16;11.00;38.60
48994;DHT22;34804;49.214;12.276;2023-02-28T14:10:47;11.30;38.00
48994;DHT22;34804;49.214;12.276;2023-02-28T14:13:38;10.20;39.50
48994;DHT22;34804;49.214;12.276;2023-02-28T14:16:23;9.80;40.90
48994;DHT22;34804;49.214;12.276;2023-02-28T14:19:00;9.70;40.60
48994;DHT22;34804;49.214;12.276;2023-02-28T14:21:29;11.20;39.30
48994;DHT22;34804;49.214;12.276;2023-02-28T14:29:41;14.00;33.70
48994;DHT22;34804;49.214;12.276;2023-02-28T14:35:20;13.90;33.20
48994;DHT22;34804;49.214;12.276;2023-02-28T14:37:48;12.80;34.50
48994;DHT22;34804;49.214;12.276;2023-02-28T14:40:27;12.70;34.00
48994;DHT22;34804;49.214;12.276;2023-02-28T14:43:02;11.90;36.20
48994;DHT22;34804;49.214;12.276;2023-02-28T14:45:31;12.30;35.50
48994;DHT22;34804;49.214;12.276;2023-02-28T14:47:59;11.60;36.20
48994;DHT22;34804;49.214;12.276;2023-02-28T14:50:30;12.30;36.20
48994;DHT22;34804;49.214;12.276;2023-02-28T14:52:58;12.40;36.00
48994;DHT22;34804;49.214;12.276;2023-02-28T14:55:30;12.30;35.30
48994;DHT22;34804;49.214;12.276;2023-02-28T14:58:00;12.30;35.30
48994;DHT22;34804;49.214;12.276;2023-02-28T15:00:35;12.20;36.30
48994;DHT22;34804;49.214;12.276;2023-02-28T15:06:02;10.10;39.60
48994;DHT22;34804;49.214;12.276;2023-02-28T15:08:30;11.40;37.90
48994;DHT22;34804;49.214;12.276;2023-02-28T15:11:15;10.90;38.20
48994;DHT22;34804;49.214;12.276;2023-02-28T15:13:54;11.40;37.20
48994;DHT22;34804;49.214;12.276;2023-02-28T15:16:34;11.80;36.70
48994;DHT22;34804;49.214;12.276;2023-02-28T15:19:05;11.80;36.00
48994;DHT22;34804;49.214;12.276;2023-02-28T15:21:39;12.30;36.40
48994;DHT22;34804;49.214;12.276;2023-02-28T15:24:17;11.90;35.70
48994;DHT22;34804;49.214;12.276;2023-02-28T15:26:54;11.80;36.60
48994;DHT22;34804;49.214;12.276;2023-02-28T15:29:24;11.40;36.90
48994;DHT22;34804;49.214;12.276;2023-02-28T15:32:03;11.70;36.60
48994;DHT22;34804;49.214;12.276;2023-02-28T15:34:42;10.70;37.90
48994;DHT22;34804;49.214;12.276;2023-02-28T15:42:39;10.00;40.00
48994;DHT22;34804;49.214;12.276;2023-02-28T15:45:37;10.30;38.70
48994;DHT22;34804;49.214;12.276;2023-02-28T15:48:37;10.30;39.10
48994;DHT22;34804;49.214;12.276;2023-02-28T15:51:09;10.30;39.10
48994;DHT22;34804;49.214;12.276;2023-02-28T15:53:54;10.00;38.90
48994;DHT22;34804;49.214;12.276;2023-02-28T15:56:25;9.50;41.00
48994;DHT22;34804;49.214;12.276;2023-02-28T15:58:56;9.40;41.30
48994;DHT22;34804;49.214;12.276;2023-02-28T16:04:05;8.70;42.60
48994;DHT22;34804;49.214;12.276;2023-02-28T16:09:01;7.70;44.80
48994;DHT22;34804;49.214;12.276;2023-02-28T16:11:28;7.40;45.40
48994;DHT22;34804;49.214;12.276;2023-02-28T16:13:57;7.40;45.70
48994;DHT22;34804;49.214;12.276;2023-02-28T16:16:26;7.20;46.30
48994;DHT22;34804;49.214;12.276;2023-02-28T16:18:53;6.60;47.20
48994;DHT22;34804;49.214;12.276;2023-02-28T16:21:20;6.30;48.30
48994;DHT22;34804;49.214;12.276;2023-02-28T16:23:47;6.10;49.20
48994;DHT22;34804;49.214;12.276;2023-02-28T16:26:21;5.50;50.50
48994;DHT22;34804;49.214;12.276;2023-02-28T16:28:49;5.20;51.70
48994;DHT22;34804;49.214;12.276;2023-02-28T16:31:17;4.90;52.50
48994;DHT22;34804;49.214;12.276;2023-02-28T16:33:45;4.70;53.50
48994;DHT22;34804;49.214;12.276;2023-02-28T16:36:17;4.50;54.50
48994;DHT22;34804;49.214;12.276;2023-02-28T16:38:44;4.00;54.70
48994;DHT22;34804;49.214;12.276;2023-02-28T16:41:19;3.80;56.50
48994;DHT22;34804;49.214;12.276;2023-02-28T16:43:49;3.60;56.70
48994;DHT22;34804;49.214;12.276;2023-02-28T16:46:16;3.60;57.30
48994;DHT22;34804;49.214;12.276;2023-02-28T16:48:44;3.30;57.70
48994;DHT22;34804;49.214;12.276;2023-02-28T16:51:15;3.10;58.80
48994;DHT22;34804;49.214;12.276;2023-02-28T16:53:43;3.00;58.60
48994;DHT22;34804;49.214;12.276;2023-02-28T16:56:18;2.80;59.30
48994;DHT22;34804;49.214;12.276;2023-02-28T16:58:45;2.80;59.30
48994;DHT22;34804;49.214;12.276;2023-02-28T17:01:14;2.70;60.50
48994;DHT22;34804;49.214;12.276;2023-02-28T17:03:41;2.60;61.00
48994;DHT22;34804;49.214;12.276;2023-02-28T17:06:22;2.60;61.30
48994;DHT22;34804;49.214;12.276;2023-02-28T17:08:50;2.40;61.50
48994;DHT22;34804;49.214;12.276;2023-02-28T17:11:17;2.50;62.00
48994;DHT22;34804;49.214;12.276;2023-02-28T17:13:45;2.40;62.30
48994;DHT22;34804;49.214;12.276;2023-02-28T17:16:33;2.30;62.70
48994;DHT22;34804;49.214;12.276;2023-02-28T17:19:05;2.30;62.70
48994;DHT22;34804;49.214;12.276;2023-02-28T17:21:33;2.30;62.40
48994;DHT22;34804;49.214;12.276;2023-02-28T17:24:00;2.20;62.70
48994;DHT22;34804;49.214;12.276;2023-02-28T17:26:27;2.10;63.10
48994;DHT22;34804;49.214;12.276;2023-02-28T17:28:56;2.00;64.10
48994;DHT22;34804;49.214;12.276;2023-02-28T17:31:25;1.80;64.20
48994;DHT22;34804;49.214;12.276;2023-02-28T17:33:53;1.80;64.50
48994;DHT22;34804;49.214;12.276;2023-02-28T17:36:25;1.80;64.40
48994;DHT22;34804;49.214;12.276;2023-02-28T17:38:53;1.70;64.90
48994;DHT22;34804;49.214;12.276;2023-02-28T17:41:21;1.50;65.30
48994;DHT22;34804;49.214;12.276;2023-02-28T17:43:51;1.40;65.60
48994;DHT22;34804;49.214;12.276;2023-02-28T17:46:23;1.40;66.00